createdAt,value
2023-05-05T00:02:17.993Z,9.10
2023-05-05T00:04:45.563Z,13.02
2023-05-05T00:07:13.160Z,6.93
2023-05-05T00:09:41.930Z,11.13
2023-05-05T00:12:09.541Z,9.07
2023-05-05T00:14:37.089Z,8.33
2023-05-05T00:17:05.382Z,12.00
2023-05-05T00:19:32.922Z,9.82
2023-05-05T00:22:00.486Z,11.18
2023-05-05T00:24:28.031Z,12.73
2023-05-05T00:26:56.023Z,13.57
2023-05-05T00:29:23.657Z,11.10
2023-05-05T00:31:52.538Z,13.10
2023-05-05T00:34:20.700Z,12.18
2023-05-05T00:36:48.536Z,13.73
2023-05-05T00:39:16.526Z,8.73
2023-05-05T00:41:44.063Z,11.75
2023-05-05T00:44:11.707Z,13.40
2023-05-05T00:46:40.693Z,12.75
2023-05-05T00:49:08.574Z,12.15
2023-05-05T00:51:36.240Z,10.73
2023-05-05T00:54:03.918Z,11.60
2023-05-05T00:56:31.882Z,8.65
2023-05-05T00:58:59.625Z,12.40
2023-05-05T01:01:27.979Z,10.05
2023-05-05T01:03:55.728Z,8.23
2023-05-05T01:06:41.439Z,9.02
2023-05-05T01:09:27.164Z,12.80
2023-05-05T01:12:12.158Z,11.77
2023-05-05T01:14:44.097Z,9.68
2023-05-05T01:17:22.069Z,9.63
2023-05-05T01:20:11.983Z,11.80
2023-05-05T01:22:53.421Z,14.23
2023-05-05T01:25:27.295Z,11.95
2023-05-05T01:28:27.437Z,14.55
2023-05-05T01:31:02.628Z,9.53
2023-05-05T01:33:37.643Z,14.10
2023-05-05T01:36:13.831Z,13.63
2023-05-05T01:38:44.862Z,12.18
2023-05-05T01:41:17.645Z,13.18
2023-05-05T01:43:49.990Z,15.70
2023-05-05T01:46:20.319Z,10.60
2023-05-05T01:48:49.383Z,12.48
2023-05-05T01:51:19.358Z,10.73
2023-05-05T01:53:47.964Z,16.88
2023-05-05T01:56:16.560Z,12.07
2023-05-05T01:58:47.255Z,17.95
2023-05-05T02:01:17.146Z,12.20
2023-05-05T02:03:47.601Z,10.32
2023-05-05T02:06:16.888Z,15.70
2023-05-05T02:08:46.112Z,12.30
2023-05-05T02:11:15.043Z,14.55
2023-05-05T02:13:47.582Z,13.02
2023-05-05T02:16:18.489Z,13.90
2023-05-05T02:18:49.050Z,18.25
2023-05-05T02:21:18.231Z,12.23
2023-05-05T02:23:56.786Z,19.02
2023-05-05T02:26:26.316Z,10.82
2023-05-05T02:29:02.253Z,14.57
2023-05-05T02:31:32.903Z,11.70
2023-05-05T02:34:05.632Z,13.53
2023-05-05T02:36:39.425Z,16.90
2023-05-05T02:39:18.257Z,10.95
2023-05-05T02:41:48.835Z,12.77
2023-05-05T02:44:27.124Z,13.88
2023-05-05T02:46:57.006Z,14.90
2023-05-05T02:49:26.502Z,11.73
2023-05-05T02:51:59.403Z,14.65
2023-05-05T02:54:32.257Z,13.38
2023-05-05T02:57:01.083Z,13.65
2023-05-05T02:59:34.698Z,15.93
2023-05-05T03:02:15.503Z,14.90
2023-05-05T03:04:50.988Z,14.98
2023-05-05T03:07:44.237Z,16.92
2023-05-05T03:10:20.623Z,16.58
2023-05-05T03:12:55.510Z,20.13
2023-05-05T03:15:38.012Z,18.75
2023-05-05T03:18:06.981Z,19.45
2023-05-05T03:20:35.927Z,14.13
2023-05-05T03:23:08.523Z,15.30
2023-05-05T03:25:43.806Z,13.57
2023-05-05T03:28:16.835Z,14.60
2023-05-05T03:30:45.603Z,15.55
2023-05-05T03:33:17.077Z,13.30
2023-05-05T03:35:45.070Z,17.77
2023-05-05T03:38:14.225Z,22.40
2023-05-05T03:40:45.030Z,20.58
2023-05-05T03:43:17.250Z,14.32
2023-05-05T03:45:45.065Z,21.25
2023-05-05T03:48:13.214Z,18.02
2023-05-05T03:50:46.126Z,21.87
2023-05-05T03:53:15.704Z,25.85
2023-05-05T03:55:44.370Z,17.95
2023-05-05T03:58:12.884Z,12.38
2023-05-05T04:00:40.695Z,19.27
2023-05-05T04:03:09.510Z,21.63
2023-05-05T04:05:38.381Z,16.48
2023-05-05T04:08:06.903Z,17.25
2023-05-05T04:10:35.159Z,13.73
2023-05-05T04:13:03.610Z,28.77
2023-05-05T04:15:34.735Z,15.87
2023-05-05T04:18:04.694Z,25.88
2023-05-05T04:20:35.413Z,24.35
2023-05-05T04:23:03.748Z,16.67
2023-05-05T04:25:31.685Z,15.52
2023-05-05T04:27:59.441Z,17.83
2023-05-05T04:30:27.469Z,15.30
2023-05-05T04:32:55.486Z,16.77
2023-05-05T04:35:23.613Z,19.80
2023-05-05T04:37:54.913Z,16.08
2023-05-05T04:40:23.435Z,15.63
2023-05-05T04:42:51.251Z,15.27
2023-05-05T04:45:19.316Z,18.45
2023-05-05T04:47:49.043Z,19.13
2023-05-05T04:50:23.056Z,23.33
2023-05-05T04:52:52.543Z,19.83
2023-05-05T04:55:20.851Z,16.50
2023-05-05T04:57:49.105Z,18.63
2023-05-05T05:00:17.530Z,21.77
2023-05-05T05:02:45.401Z,16.50
2023-05-05T05:05:14.996Z,19.67
2023-05-05T05:07:43.747Z,17.15
2023-05-05T05:12:55.905Z,19.90
2023-05-05T05:15:26.242Z,23.88
2023-05-05T05:17:55.055Z,19.70
2023-05-05T05:23:04.705Z,15.80
2023-05-05T05:25:35.781Z,22.10
2023-05-05T05:28:10.024Z,14.00
2023-05-05T05:30:43.611Z,19.50
2023-05-05T05:33:15.349Z,21.25
2023-05-05T05:35:45.790Z,23.85
2023-05-05T05:38:14.606Z,26.23
2023-05-05T05:40:44.027Z,21.80
2023-05-05T05:43:13.299Z,21.53
2023-05-05T05:48:33.723Z,22.33
2023-05-05T05:51:04.225Z,25.17
2023-05-05T05:53:34.377Z,22.67
2023-05-05T05:56:06.907Z,13.37
2023-05-05T05:58:36.667Z,21.85
2023-05-05T06:01:05.862Z,19.58
2023-05-05T06:03:34.352Z,21.25
2023-05-05T06:06:03.487Z,16.95
2023-05-05T06:08:36.849Z,18.73
2023-05-05T06:11:04.738Z,25.85
2023-05-05T06:13:35.296Z,14.77
2023-05-05T06:16:03.791Z,16.60
2023-05-05T06:18:32.029Z,15.20
2023-05-05T06:23:47.456Z,20.83
2023-05-05T06:26:23.780Z,22.45
2023-05-05T06:28:53.634Z,21.58
2023-05-05T06:31:22.071Z,24.10
2023-05-05T06:33:54.087Z,19.87
2023-05-05T06:39:08.986Z,19.77
2023-05-05T06:41:36.586Z,17.15
2023-05-05T06:44:04.878Z,18.17
2023-05-05T06:46:32.477Z,18.80
2023-05-05T06:49:00.150Z,22.45
2023-05-05T06:51:27.756Z,18.20
2023-05-05T06:53:55.254Z,22.55
2023-05-05T06:56:23.996Z,22.13
2023-05-05T06:58:51.655Z,13.80
2023-05-05T07:01:19.297Z,18.67
2023-05-05T07:03:46.891Z,19.17
2023-05-05T07:06:14.467Z,17.35
2023-05-05T07:08:42.150Z,17.20
2023-05-05T07:11:09.804Z,16.10
2023-05-05T07:13:37.331Z,16.50
2023-05-05T07:16:05.309Z,16.15
2023-05-05T07:18:32.877Z,14.98
2023-05-05T07:21:01.512Z,19.00
2023-05-05T07:23:29.013Z,13.80
2023-05-05T07:25:56.724Z,14.85
2023-05-05T07:28:24.335Z,17.95
2023-05-05T07:30:52.171Z,16.50
2023-05-05T07:33:19.764Z,17.70
2023-05-05T07:35:47.282Z,16.17
2023-05-05T07:38:14.939Z,18.13
2023-05-05T07:40:42.807Z,17.73
2023-05-05T07:43:10.597Z,15.27
2023-05-05T07:45:38.166Z,19.13
2023-05-05T07:48:05.919Z,14.63
2023-05-05T07:50:33.463Z,22.50
2023-05-05T07:53:10.826Z,24.00
2023-05-05T07:55:42.564Z,15.75
2023-05-05T07:58:11.199Z,17.17
2023-05-05T08:00:39.189Z,21.23
2023-05-05T08:03:08.954Z,17.58
2023-05-05T08:05:38.642Z,16.52
2023-05-05T08:08:07.119Z,23.35
2023-05-05T08:10:34.806Z,17.20
2023-05-05T08:13:02.493Z,20.70
2023-05-05T08:15:30.161Z,18.50
2023-05-05T08:17:57.696Z,18.10
2023-05-05T08:20:28.907Z,17.48
2023-05-05T08:22:56.904Z,20.35
2023-05-05T08:25:26.916Z,20.00
2023-05-05T08:27:54.642Z,21.10
2023-05-05T08:30:28.216Z,21.98
2023-05-05T08:32:56.064Z,23.90
2023-05-05T08:35:24.037Z,18.77
2023-05-05T08:37:52.016Z,27.17
2023-05-05T08:40:25.165Z,18.75
2023-05-05T08:42:52.876Z,19.05
2023-05-05T08:45:20.581Z,19.63
2023-05-05T08:47:48.958Z,19.67
2023-05-05T08:50:17.507Z,22.77
2023-05-05T08:52:51.650Z,14.50
2023-05-05T08:55:26.895Z,19.60
2023-05-05T08:58:01.257Z,20.52
2023-05-05T09:00:29.432Z,22.85
2023-05-05T09:02:58.855Z,16.73
2023-05-05T09:05:27.089Z,25.33
2023-05-05T09:07:54.729Z,22.00
2023-05-05T09:10:22.469Z,25.50
2023-05-05T09:12:51.599Z,24.73
2023-05-05T09:15:19.322Z,22.47
2023-05-05T09:17:47.358Z,23.77
2023-05-05T09:20:15.422Z,23.88
2023-05-05T09:22:44.792Z,20.40
2023-05-05T09:25:14.401Z,26.58
2023-05-05T09:27:43.117Z,25.97
2023-05-05T09:30:12.275Z,22.13
2023-05-05T09:32:51.272Z,29.13
2023-05-05T09:35:20.567Z,22.48
2023-05-05T09:37:48.536Z,20.38
2023-05-05T09:40:18.773Z,22.17
2023-05-05T09:42:47.462Z,23.48
2023-05-05T09:45:17.769Z,20.95
2023-05-05T09:47:47.283Z,21.40
2023-05-05T09:50:18.687Z,19.00
2023-05-05T09:53:00.450Z,23.23
2023-05-05T09:55:28.443Z,25.30
2023-05-05T09:57:56.340Z,17.17
2023-05-05T10:00:38.830Z,20.33
2023-05-05T10:03:06.832Z,22.58
2023-05-05T10:05:52.966Z,22.40
2023-05-05T10:08:22.710Z,18.15
2023-05-05T10:10:55.464Z,22.40
2023-05-05T10:13:24.354Z,22.13
2023-05-05T10:15:54.708Z,24.77
2023-05-05T10:18:23.595Z,21.23
2023-05-05T10:21:03.367Z,19.65
2023-05-05T10:23:48.008Z,19.70
2023-05-05T10:26:17.172Z,20.85
2023-05-05T10:28:49.985Z,20.42
2023-05-05T10:31:26.766Z,17.80
2023-05-05T10:34:03.551Z,19.55
2023-05-05T10:36:32.096Z,21.75
2023-05-05T10:39:00.588Z,19.50
2023-05-05T10:41:30.983Z,20.20
2023-05-05T10:44:01.342Z,15.20
2023-05-05T10:46:31.773Z,17.90
2023-05-05T10:49:13.547Z,17.85
2023-05-05T10:51:57.824Z,20.70
2023-05-05T10:54:45.779Z,17.15
2023-05-05T10:57:16.909Z,14.90
2023-05-05T10:59:44.614Z,17.70
2023-05-05T11:02:31.469Z,20.42
2023-05-05T11:05:27.592Z,17.45
2023-05-05T11:08:27.463Z,15.80
2023-05-05T11:10:55.061Z,18.70
2023-05-05T11:13:22.977Z,19.50
2023-05-05T11:15:58.170Z,16.48
2023-05-05T11:18:30.781Z,17.70
2023-05-05T11:20:58.274Z,15.32
2023-05-05T11:23:26.890Z,16.63
2023-05-05T11:25:55.891Z,17.00
2023-05-05T11:28:25.951Z,18.17
2023-05-05T11:30:57.288Z,17.77
2023-05-05T11:33:54.096Z,15.38
2023-05-05T11:36:39.879Z,17.70
2023-05-05T11:39:39.068Z,15.13
2023-05-05T11:42:40.836Z,16.48
2023-05-05T11:45:23.099Z,17.30
2023-05-05T11:48:27.138Z,21.52
2023-05-05T11:50:55.204Z,15.27
2023-05-05T11:53:23.397Z,15.82
2023-05-05T11:56:06.434Z,15.60
2023-05-05T11:58:34.046Z,19.70
2023-05-05T12:01:06.298Z,20.40
2023-05-05T12:03:38.176Z,21.23
2023-05-05T12:06:07.266Z,14.85
2023-05-05T12:08:39.168Z,18.70
2023-05-05T12:11:11.652Z,17.27
2023-05-05T12:13:39.395Z,17.08
2023-05-05T12:16:16.689Z,16.00
2023-05-05T12:18:44.378Z,20.55
2023-05-05T12:21:20.218Z,16.80
2023-05-05T12:23:47.971Z,18.08
2023-05-05T12:26:29.780Z,19.73
2023-05-05T12:29:01.101Z,16.80
2023-05-05T12:31:42.131Z,14.25
2023-05-05T12:34:11.189Z,14.55
2023-05-05T12:36:39.625Z,17.27
2023-05-05T12:39:08.015Z,19.20
2023-05-05T12:41:35.945Z,17.47
2023-05-05T12:44:04.124Z,21.48
2023-05-05T12:46:45.541Z,17.85
2023-05-05T12:49:13.630Z,18.95
2023-05-05T12:51:56.553Z,23.65
2023-05-05T12:54:25.144Z,23.07
2023-05-05T12:56:52.718Z,22.20
2023-05-05T12:59:23.369Z,17.50
2023-05-05T13:01:55.594Z,20.88
2023-05-05T13:04:25.202Z,20.30
2023-05-05T13:07:12.532Z,21.17
2023-05-05T13:09:40.785Z,22.13
2023-05-05T13:12:08.737Z,25.55
2023-05-05T13:14:36.668Z,18.30
2023-05-05T13:17:04.527Z,18.02
2023-05-05T13:19:32.156Z,21.80
2023-05-05T13:22:00.023Z,15.85
2023-05-05T13:24:38.595Z,16.55
2023-05-05T13:27:14.752Z,20.95
2023-05-05T13:29:42.516Z,19.98
2023-05-05T13:32:11.325Z,17.10
2023-05-05T13:34:39.436Z,22.65
2023-05-05T13:37:07.370Z,25.52
2023-05-05T13:39:34.881Z,21.23
2023-05-05T13:42:03.009Z,22.27
2023-05-05T13:44:31.008Z,21.83
2023-05-05T13:46:58.867Z,24.60
2023-05-05T13:49:27.138Z,20.27
2023-05-05T13:51:56.298Z,18.85
2023-05-05T13:54:23.986Z,17.17
2023-05-05T13:56:51.706Z,18.67
2023-05-05T13:59:19.311Z,18.95
2023-05-05T14:01:46.924Z,22.77
2023-05-05T14:04:14.546Z,24.02
2023-05-05T14:06:42.096Z,21.63
2023-05-05T14:09:09.662Z,21.33
2023-05-05T14:11:37.214Z,22.40
2023-05-05T14:18:18.868Z,18.05
2023-05-05T14:20:46.452Z,15.05
2023-05-05T14:23:13.992Z,20.73
2023-05-05T14:25:41.626Z,13.73
2023-05-05T16:22:43.780Z,5.38
2023-05-05T16:25:11.432Z,3.25
2023-05-05T16:27:39.030Z,4.25
2023-05-05T16:30:08.655Z,7.07
2023-05-05T16:32:36.312Z,4.72
2023-05-05T16:35:04.114Z,7.57
2023-05-05T16:37:31.713Z,7.72
2023-05-05T16:40:00.792Z,6.78
2023-05-05T16:42:28.802Z,4.83
2023-05-05T16:44:59.051Z,5.13
2023-05-05T16:47:27.372Z,5.68
2023-05-05T16:49:55.072Z,4.15
2023-05-05T16:52:22.686Z,3.42
2023-05-05T16:54:55.542Z,5.63
2023-05-05T16:57:23.809Z,4.28
2023-05-05T16:59:51.484Z,4.72
2023-05-05T17:02:19.102Z,5.03
2023-05-05T17:04:46.653Z,4.32
2023-05-05T17:07:14.224Z,4.30
2023-05-05T17:09:41.743Z,5.68
2023-05-05T17:12:09.402Z,6.95
2023-05-05T17:14:36.952Z,6.28
2023-05-05T17:17:04.536Z,4.22
2023-05-05T17:19:32.042Z,3.60
2023-05-05T17:21:59.610Z,4.47
2023-05-05T17:24:27.294Z,4.32
2023-05-05T17:26:55.598Z,12.52
2023-05-05T17:29:23.363Z,9.63
2023-05-05T17:31:51.041Z,14.40
2023-05-05T17:34:18.661Z,12.13
2023-05-05T17:36:46.298Z,13.23
2023-05-05T17:39:13.992Z,14.52
2023-05-05T17:41:42.507Z,14.57
2023-05-05T17:44:10.023Z,16.90
2023-05-05T17:46:37.726Z,17.25
2023-05-05T17:49:05.292Z,15.93
2023-05-05T17:51:33.094Z,13.15
2023-05-05T17:54:01.862Z,18.17
2023-05-05T17:56:29.570Z,16.43
2023-05-05T17:58:57.191Z,14.93
2023-05-05T18:01:26.568Z,16.67
2023-05-05T18:03:54.484Z,15.82
2023-05-05T18:06:22.011Z,19.83
2023-05-05T18:08:49.543Z,20.00
2023-05-05T18:11:17.309Z,16.63
2023-05-05T18:13:44.991Z,15.95
2023-05-05T18:16:12.613Z,16.42
2023-05-05T18:18:41.299Z,16.63
2023-05-05T18:21:12.278Z,22.30
2023-05-05T18:23:40.433Z,16.77
2023-05-05T18:26:08.720Z,20.45
2023-05-05T18:28:37.232Z,22.48
2023-05-05T18:31:05.548Z,24.73
2023-05-05T18:33:33.184Z,18.83
2023-05-05T18:36:02.414Z,17.45
2023-05-05T18:38:32.188Z,22.13
2023-05-05T18:40:59.747Z,20.33
2023-05-05T18:43:27.271Z,15.85
2023-05-05T18:45:54.867Z,14.77
2023-05-05T18:48:22.446Z,17.40
2023-05-05T18:50:51.452Z,16.98
2023-05-05T18:53:19.146Z,20.20
2023-05-05T18:55:47.284Z,18.98
2023-05-05T18:58:16.808Z,19.93
2023-05-05T19:00:44.440Z,21.75
2023-05-05T19:03:12.151Z,21.63
2023-05-05T19:05:40.778Z,16.83
2023-05-05T19:08:08.548Z,18.55
2023-05-05T19:10:36.352Z,19.07
2023-05-05T19:13:04.832Z,16.80
2023-05-05T19:15:32.728Z,16.80
2023-05-05T19:18:00.852Z,18.52
2023-05-05T19:20:30.929Z,17.10
2023-05-05T19:23:03.724Z,19.97
2023-05-05T19:25:31.612Z,20.67
2023-05-05T19:27:59.290Z,21.00
2023-05-05T19:30:27.084Z,21.05
2023-05-05T19:32:54.605Z,18.83
2023-05-05T19:35:22.491Z,22.57
2023-05-05T19:37:50.563Z,19.17
2023-05-05T19:40:18.191Z,21.88
2023-05-05T19:42:45.711Z,22.60
2023-05-05T19:45:13.429Z,20.90
2023-05-05T19:47:41.104Z,23.10
2023-05-05T19:50:09.568Z,18.45
2023-05-05T19:52:41.518Z,20.48
2023-05-05T19:55:10.592Z,20.27
2023-05-05T19:57:38.442Z,21.48
2023-05-05T20:00:07.700Z,20.83
2023-05-05T20:02:37.004Z,18.98
2023-05-05T20:05:05.380Z,24.90
2023-05-05T20:07:33.053Z,18.90
2023-05-05T20:10:01.024Z,23.90
2023-05-05T20:12:28.648Z,23.63
2023-05-05T20:14:56.318Z,23.27
2023-05-05T20:17:24.028Z,26.48
2023-05-05T20:19:51.715Z,24.52
2023-05-05T20:22:19.264Z,23.52
2023-05-05T20:24:46.875Z,23.40
2023-05-05T20:27:17.419Z,25.58
2023-05-05T20:29:45.103Z,24.48
2023-05-05T20:32:12.598Z,25.58
2023-05-05T20:34:40.195Z,22.35
2023-05-05T20:37:07.816Z,25.47
2023-05-05T20:39:35.462Z,20.13
2023-05-05T20:42:03.368Z,21.52
2023-05-05T20:44:32.106Z,23.30
2023-05-05T20:46:59.718Z,22.45
2023-05-05T20:49:27.294Z,21.73
2023-05-05T20:51:54.858Z,23.95
2023-05-05T20:54:22.427Z,23.90
2023-05-05T20:56:49.973Z,24.77
2023-05-05T20:59:17.539Z,24.38
2023-05-05T21:01:45.285Z,29.93
2023-05-05T21:04:12.839Z,24.95
2023-05-05T21:06:40.396Z,29.50
2023-05-05T21:09:08.021Z,24.35
2023-05-05T21:11:35.588Z,26.08
2023-05-05T21:14:05.540Z,24.80
2023-05-05T21:16:33.222Z,31.33
2023-05-05T21:19:00.943Z,25.48
2023-05-05T21:21:28.713Z,29.25
2023-05-05T21:23:57.670Z,24.77
2023-05-05T21:26:25.326Z,30.77
2023-05-05T21:28:52.913Z,30.08
2023-05-05T21:31:22.108Z,24.73
2023-05-05T21:33:50.029Z,26.73
2023-05-05T21:36:19.222Z,25.98
2023-05-05T21:38:47.109Z,24.37
2023-05-05T21:41:14.697Z,26.40
2023-05-05T21:43:42.454Z,27.50
2023-05-05T21:46:10.086Z,27.48
2023-05-05T21:48:39.129Z,23.85
2023-05-05T21:51:07.325Z,22.17
2023-05-05T21:53:35.104Z,20.67
2023-05-05T21:56:02.736Z,24.27
2023-05-05T21:58:30.443Z,23.88
2023-05-05T22:00:58.035Z,21.05
2023-05-05T22:03:26.288Z,21.20
2023-05-05T22:05:53.973Z,23.23
2023-05-05T22:08:21.694Z,21.23
2023-05-05T22:10:49.231Z,25.48
2023-05-05T22:13:16.916Z,22.52
2023-05-05T22:15:47.127Z,23.53
2023-05-05T22:18:15.787Z,26.23
2023-05-05T22:20:44.061Z,23.00
2023-05-05T22:23:11.958Z,21.27
2023-05-05T22:25:39.566Z,25.35
2023-05-05T22:28:07.142Z,23.80
2023-05-05T22:30:34.681Z,23.90
2023-05-05T22:33:02.575Z,24.38
2023-05-05T22:35:30.254Z,23.02
2023-05-05T22:37:58.051Z,25.50
2023-05-05T22:40:25.692Z,26.23
2023-05-05T22:42:53.291Z,29.20
2023-05-05T22:45:22.387Z,24.30
2023-05-05T22:47:50.453Z,25.20
2023-05-05T22:50:18.638Z,25.83
2023-05-05T22:52:46.209Z,28.33
2023-05-05T22:55:15.033Z,25.80
2023-05-05T22:57:43.163Z,26.33
2023-05-05T23:00:10.960Z,24.85
2023-05-05T23:02:38.939Z,31.23
2023-05-05T23:05:07.060Z,23.90
2023-05-05T23:07:34.665Z,25.50
2023-05-05T23:10:02.460Z,28.23
2023-05-05T23:12:30.196Z,26.02
2023-05-05T23:14:57.801Z,30.85
2023-05-05T23:17:25.455Z,26.13
2023-05-05T23:19:53.196Z,26.83
2023-05-05T23:22:20.802Z,27.35
2023-05-05T23:24:48.302Z,28.02
2023-05-05T23:27:15.859Z,22.42
2023-05-05T23:29:43.447Z,25.43
2023-05-05T23:32:11.043Z,27.38
2023-05-05T23:34:39.191Z,20.73
2023-05-05T23:37:06.761Z,25.67
2023-05-05T23:39:34.783Z,22.70
2023-05-05T23:42:02.417Z,24.50
2023-05-05T23:44:30.052Z,22.67
2023-05-05T23:46:57.648Z,23.73
2023-05-05T23:49:26.435Z,27.67
2023-05-05T23:51:54.021Z,23.05
2023-05-05T23:54:21.543Z,25.20
2023-05-05T23:56:49.154Z,26.52
2023-05-05T23:59:16.682Z,25.67
